Time;durP1;ratioP1;P1;durP2;ratioP2;P2;SDS_P1;SDS_P2;PMS_P1;PMS_P2;Temp;Humidity;BMP_temperature;BMP_pressure;BME280_temperature;BME280_humidity;BME280_pressure;Samples;Min_cycle;Max_cycle;Signal;HPM_P1;HPM_P2
2022/04/03 00:00:33;;;;;;;28.98;18.02;;;;;;;-1.80;100.00;96535.38;5002203;28;20046;-67
2022/04/03 00:03:00;;;;;;;29.92;18.70;;;;;;;-1.47;100.00;96530.03;4998558;28;20076;-64
2022/04/03 00:05:26;;;;;;;30.50;18.58;;;;;;;-1.46;100.00;96530.81;4990558;28;20124;-66
2022/04/03 00:07:53;;;;;;;26.27;17.50;;;;;;;-1.40;100.00;96535.03;4992103;28;20047;-67
2022/04/03 00:10:19;;;;;;;30.70;18.23;;;;;;;-1.29;100.00;96525.72;4988384;28;20038;-66
2022/04/03 00:12:46;;;;;;;27.20;18.10;;;;;;;-1.21;100.00;96530.41;4988510;28;20050;-66
2022/04/03 00:15:14;;;;;;;26.10;17.50;;;;;;;-0.98;100.00;96533.25;5013074;28;20038;-66
2022/04/03 00:17:40;;;;;;;27.85;16.85;;;;;;;-0.89;100.00;96528.00;4999851;28;20038;-65
2022/04/03 00:20:06;;;;;;;31.40;17.20;;;;;;;-0.91;100.00;96528.28;4986639;28;20072;-65
2022/04/03 00:22:31;;;;;;;24.00;16.35;;;;;;;-0.88;100.00;96534.94;4996870;28;20074;-66
2022/04/03 00:24:57;;;;;;;25.23;16.80;;;;;;;-0.91;100.00;96539.03;4996265;28;20046;-67
2022/04/03 00:27:22;;;;;;;27.35;16.80;;;;;;;-0.79;100.00;96527.81;4991862;28;20108;-65
2022/04/03 00:29:48;;;;;;;26.42;17.40;;;;;;;-0.73;100.00;96540.06;4993880;28;20048;-65
2022/04/03 00:32:14;;;;;;;26.83;17.10;;;;;;;-0.87;100.00;96537.34;4988426;28;20041;-66
2022/04/03 00:34:40;;;;;;;27.67;17.63;;;;;;;-1.14;100.00;96538.09;5006937;28;20049;-65
2022/04/03 00:37:05;;;;;;;26.48;17.30;;;;;;;-1.12;100.00;96530.53;4989008;28;20042;-65
2022/04/03 00:39:31;;;;;;;26.10;17.52;;;;;;;-1.18;100.00;96529.81;4996150;28;20092;-66
2022/04/03 00:41:56;;;;;;;25.77;17.75;;;;;;;-1.28;100.00;96529.97;4998053;28;20548;-67
2022/04/03 00:44:23;;;;;;;28.38;17.92;;;;;;;-1.21;100.00;96532.31;4985936;28;20050;-67
2022/04/03 00:46:49;;;;;;;29.35;17.83;;;;;;;-1.24;100.00;96536.38;4993247;28;20628;-68
2022/04/03 00:49:14;;;;;;;27.17;17.50;;;;;;;-1.08;100.00;96538.81;4988549;28;20034;-66
2022/04/03 00:51:40;;;;;;;26.75;17.00;;;;;;;-0.84;100.00;96544.03;4988756;28;20047;-65
2022/04/03 00:54:07;;;;;;;27.30;16.90;;;;;;;-0.93;100.00;96538.56;4994120;28;20080;-64
2022/04/03 00:56:34;;;;;;;25.52;16.05;;;;;;;-0.98;100.00;96535.94;5006406;28;20357;-67
2022/04/03 00:59:01;;;;;;;27.15;17.05;;;;;;;-0.93;100.00;96540.44;5010654;28;20065;-65
2022/04/03 01:01:26;;;;;;;29.90;17.83;;;;;;;-0.87;100.00;96545.41;4998825;28;20081;-67
2022/04/03 01:03:51;;;;;;;25.20;17.02;;;;;;;-0.81;100.00;96548.81;4994129;28;20519;-64
2022/04/03 01:06:17;;;;;;;24.88;17.00;;;;;;;-0.70;100.00;96544.03;4994790;28;20089;-65
2022/04/03 01:08:43;;;;;;;25.92;17.35;;;;;;;-0.69;100.00;96546.44;5008896;28;20376;-67
2022/04/03 01:11:11;;;;;;;28.30;16.13;;;;;;;-0.78;100.00;96548.22;5012856;28;20053;-67
2022/04/03 01:13:45;;;;;;;30.27;17.07;;;;;;;-0.87;100.00;96548.09;4995074;28;20042;-65
2022/04/03 01:16:11;;;;;;;26.08;16.90;;;;;;;-0.83;100.00;96548.31;5012778;28;20038;-64
2022/04/03 01:18:37;;;;;;;26.33;16.80;;;;;;;-0.82;100.00;96548.03;5015146;28;20375;-67
2022/04/03 01:21:03;;;;;;;28.50;17.02;;;;;;;-0.79;100.00;96547.44;5013002;28;20037;-64
2022/04/03 01:23:28;;;;;;;27.02;17.10;;;;;;;-1.05;100.00;96549.75;5011971;28;20041;-65
2022/04/03 01:25:54;;;;;;;26.08;17.17;;;;;;;-0.87;100.00;96544.63;5012196;28;20026;-64
2022/04/03 01:28:19;;;;;;;25.88;16.35;;;;;;;-0.89;100.00;96547.59;5013483;28;20038;-65
2022/04/03 01:30:45;;;;;;;26.25;17.17;;;;;;;-0.78;100.00;96546.31;5012469;28;20525;-65
2022/04/03 01:33:10;;;;;;;25.83;16.83;;;;;;;-1.01;100.00;96552.66;5013636;28;20034;-64
2022/04/03 01:35:36;;;;;;;27.33;16.60;;;;;;;-0.94;100.00;96546.91;5013029;28;20645;-66
2022/04/03 01:38:01;;;;;;;28.17;18.00;;;;;;;-1.02;100.00;96546.50;5013939;28;20441;-65
2022/04/03 01:40:26;;;;;;;27.83;18.02;;;;;;;-1.08;100.00;96550.38;5012652;28;20033;-65
2022/04/03 01:42:52;;;;;;;28.00;18.20;;;;;;;-1.23;100.00;96551.41;5011762;28;20061;-64
2022/04/03 01:45:20;;;;;;;28.08;18.80;;;;;;;-1.35;100.00;96543.03;5011308;28;20041;-64
2022/04/03 01:47:46;;;;;;;29.50;18.58;;;;;;;-1.24;100.00;96559.75;5013501;28;20030;-64
2022/04/03 01:50:11;;;;;;;30.35;19.73;;;;;;;-1.37;100.00;96551.38;5004217;28;20482;-64
2022/04/03 01:52:36;;;;;;;29.13;19.60;;;;;;;-1.54;100.00;96557.25;5026288;28;20056;-64
2022/04/03 01:55:02;;;;;;;32.75;20.35;;;;;;;-1.69;100.00;96552.13;5015914;28;20041;-62
2022/04/03 01:57:28;;;;;;;38.22;21.35;;;;;;;-1.69;100.00;96556.69;5013233;28;20061;-64
2022/04/03 01:59:53;;;;;;;30.63;19.40;;;;;;;-1.64;100.00;96551.25;5019508;28;20041;-64
2022/04/03 02:02:19;;;;;;;34.97;20.73;;;;;;;-1.64;100.00;96554.75;5011503;28;20029;-65
2022/04/03 02:04:45;;;;;;;30.90;19.25;;;;;;;-1.66;100.00;96562.28;5012490;28;20096;-65
2022/04/03 02:07:11;;;;;;;32.67;20.27;;;;;;;-1.65;100.00;96557.72;5014752;28;20087;-63
2022/04/03 02:09:37;;;;;;;31.73;20.38;;;;;;;-1.58;100.00;96568.91;5009155;28;20030;-65
2022/04/03 02:12:04;;;;;;;33.42;20.73;;;;;;;-1.59;100.00;96561.91;5016602;28;20037;-65
2022/04/03 02:14:29;;;;;;;31.73;19.35;;;;;;;-1.66;100.00;96558.78;5016644;28;20073;-65
2022/04/03 02:16:56;;;;;;;34.75;21.02;;;;;;;-1.73;100.00;96564.53;5028795;22;20069;-67
2022/04/03 02:19:21;;;;;;;33.15;20.33;;;;;;;-1.78;100.00;96570.78;5015899;28;20052;-64
2022/04/03 02:21:47;;;;;;;31.73;19.80;;;;;;;-1.77;100.00;96563.50;5015644;28;20490;-65
2022/04/03 02:24:12;;;;;;;32.22;20.95;;;;;;;-1.81;100.00;96565.19;5014470;28;20089;-65
2022/04/03 02:26:38;;;;;;;32.17;19.42;;;;;;;-1.73;100.00;96570.72;5015541;28;20109;-65
2022/04/03 02:29:03;;;;;;;32.58;19.83;;;;;;;-1.74;100.00;96576.38;5015948;28;20036;-65
2022/04/03 02:31:29;;;;;;;32.25;20.38;;;;;;;-1.73;100.00;96576.09;5016068;28;20030;-65
2022/04/03 02:33:54;;;;;;;33.03;20.38;;;;;;;-1.73;100.00;96567.22;5016388;28;20030;-65
2022/04/03 02:36:20;;;;;;;27.65;18.25;;;;;;;-1.73;100.00;96568.03;5014891;28;20038;-65
2022/04/03 02:38:45;;;;;;;31.23;18.98;;;;;;;-1.61;100.00;96574.84;5006576;28;20061;-66
2022/04/03 02:41:12;;;;;;;29.67;18.60;;;;;;;-1.53;100.00;96571.50;5003109;28;20046;-65
2022/04/03 02:43:37;;;;;;;30.30;18.85;;;;;;;-1.52;100.00;96575.00;5003738;28;20041;-65
2022/04/03 02:46:03;;;;;;;27.90;17.88;;;;;;;-1.67;100.00;96581.38;5015388;28;20026;-65
2022/04/03 02:48:28;;;;;;;30.13;18.58;;;;;;;-1.66;100.00;96580.28;5014094;28;20394;-65
2022/04/03 02:50:53;;;;;;;32.50;18.77;;;;;;;-1.58;100.00;96582.31;5005291;28;20113;-65
2022/04/03 02:53:19;;;;;;;31.48;18.70;;;;;;;-1.79;100.00;96573.75;5006358;28;20030;-66
2022/04/03 02:55:44;;;;;;;30.23;17.92;;;;;;;-1.83;100.00;96580.78;5001049;28;20495;-64
2022/04/03 02:58:11;;;;;;;29.80;19.10;;;;;;;-1.94;100.00;96588.19;5008101;28;20034;-64
2022/04/03 03:00:37;;;;;;;32.70;19.30;;;;;;;-1.91;100.00;96590.28;5007713;28;20102;-65
2022/04/03 03:03:05;;;;;;;31.73;19.80;;;;;;;-1.90;100.00;96591.09;4995744;28;20018;-64
2022/04/03 03:05:30;;;;;;;29.70;18.63;;;;;;;-1.73;100.00;96594.06;4994790;28;20030;-64
2022/04/03 03:07:55;;;;;;;29.17;18.02;;;;;;;-1.75;100.00;96580.13;4995456;28;20399;-65
2022/04/03 03:10:22;;;;;;;27.80;17.52;;;;;;;-1.83;100.00;96583.47;4994083;28;20060;-66
2022/04/03 03:12:48;;;;;;;26.60;17.33;;;;;;;-1.93;100.00;96582.53;4994942;28;20398;-65
2022/04/03 03:15:14;;;;;;;31.40;19.25;;;;;;;-1.87;100.00;96577.88;4995133;28;20026;-65
2022/04/03 03:17:40;;;;;;;28.08;17.70;;;;;;;-1.78;100.00;96573.47;4993828;28;20049;-65
2022/04/03 03:20:06;;;;;;;25.73;17.65;;;;;;;-1.82;100.00;96574.31;4993960;28;20254;-64
2022/04/03 03:22:33;;;;;;;27.08;17.15;;;;;;;-1.89;100.00;96576.56;4995008;28;20022;-65
2022/04/03 03:24:59;;;;;;;29.20;17.83;;;;;;;-1.83;100.00;96573.53;4994717;28;20498;-65
2022/04/03 03:27:24;;;;;;;31.80;18.00;;;;;;;-1.81;100.00;96571.34;4994838;28;20038;-63
2022/04/03 03:29:49;;;;;;;28.70;16.90;;;;;;;-1.79;100.00;96577.22;4993481;28;20479;-64
2022/04/03 03:32:15;;;;;;;26.40;17.15;;;;;;;-1.84;100.00;96581.88;4994891;28;20097;-64
2022/04/03 03:34:40;;;;;;;27.63;17.15;;;;;;;-1.90;100.00;96577.66;4994981;28;20039;-64
2022/04/03 03:37:06;;;;;;;26.63;17.92;;;;;;;-1.97;100.00;96583.38;4994279;28;20034;-65
2022/04/03 03:39:31;;;;;;;29.50;18.88;;;;;;;-2.00;100.00;96578.59;4994789;28;20033;-64
2022/04/03 03:41:57;;;;;;;27.20;17.45;;;;;;;-2.00;100.00;96579.41;4996228;28;20033;-65
2022/04/03 03:44:22;;;;;;;32.38;18.98;;;;;;;-2.05;100.00;96579.47;4995051;28;20035;-65
2022/04/03 03:46:48;;;;;;;32.35;18.30;;;;;;;-2.07;100.00;96570.91;4994411;28;20481;-65
2022/04/03 03:49:14;;;;;;;28.88;18.45;;;;;;;-2.06;100.00;96575.16;4994708;28;20117;-65
2022/04/03 03:51:39;;;;;;;26.73;17.25;;;;;;;-2.08;100.00;96574.66;4994468;28;20034;-63
2022/04/03 03:54:05;;;;;;;28.00;17.85;;;;;;;-2.08;100.00;96576.56;4994458;28;20036;-65
2022/04/03 03:56:30;;;;;;;27.80;17.38;;;;;;;-2.10;100.00;96576.84;4994286;28;20026;-65
2022/04/03 03:58:56;;;;;;;27.85;18.17;;;;;;;-2.05;100.00;96575.97;4994936;28;20042;-65
2022/04/03 04:01:22;;;;;;;28.25;18.70;;;;;;;-2.05;100.00;96575.97;4994573;28;20041;-65
2022/04/03 04:03:48;;;;;;;33.58;17.48;;;;;;;-2.02;100.00;96578.88;4994750;28;20065;-64
2022/04/03 04:06:14;;;;;;;26.42;16.08;;;;;;;-2.02;100.00;96575.41;4994010;28;20065;-65
2022/04/03 04:08:39;;;;;;;25.00;16.20;;;;;;;-2.04;100.00;96581.03;4994576;28;20042;-65
2022/04/03 04:11:05;;;;;;;26.83;15.95;;;;;;;-2.08;100.00;96585.41;4993787;28;20030;-65
2022/04/03 04:13:31;;;;;;;28.88;17.05;;;;;;;-2.03;100.00;96588.03;4994096;28;20104;-65
2022/04/03 04:15:57;;;;;;;28.98;16.27;;;;;;;-1.85;100.00;96585.66;4992476;28;20839;-63
2022/04/03 04:18:22;;;;;;;25.95;16.52;;;;;;;-1.85;100.00;96591.03;4994233;28;20398;-64
2022/04/03 04:20:48;;;;;;;28.25;16.00;;;;;;;-1.72;100.00;96592.97;4994116;28;20066;-64
2022/04/03 04:23:14;;;;;;;25.92;16.23;;;;;;;-1.88;100.00;96596.97;4994174;28;20026;-64
2022/04/03 04:25:39;;;;;;;26.08;16.90;;;;;;;-1.78;100.00;96594.16;4992589;28;20517;-65
2022/04/03 04:28:05;;;;;;;25.13;16.10;;;;;;;-1.53;100.00;96595.69;4994427;28;20030;-64
2022/04/03 04:30:31;;;;;;;23.95;15.32;;;;;;;-1.40;100.00;96596.84;4994241;28;20054;-65
2022/04/03 04:32:56;;;;;;;27.20;15.20;;;;;;;-1.33;100.00;96599.13;4992739;28;20446;-66
2022/04/03 04:35:22;;;;;;;21.30;14.95;;;;;;;-1.50;100.00;96607.72;4993489;28;20084;-65
2022/04/03 04:37:47;;;;;;;25.02;14.80;;;;;;;-1.40;100.00;96599.53;4993607;28;20495;-65
2022/04/03 04:40:13;;;;;;;25.13;14.45;;;;;;;-1.32;100.00;96603.44;4993522;28;20491;-65
2022/04/03 04:42:39;;;;;;;23.48;14.73;;;;;;;-1.42;100.00;96612.44;4993764;28;20030;-65
2022/04/03 04:45:09;;;;;;;24.52;14.75;;;;;;;-1.53;100.00;96614.50;4995823;28;20041;-66
2022/04/03 04:47:36;;;;;;;23.73;14.98;;;;;;;-1.64;100.00;96621.88;5003922;28;20091;-65
2022/04/03 04:50:07;;;;;;;24.38;15.38;;;;;;;-1.62;100.00;96624.25;4988968;28;20037;-65
2022/04/03 04:52:33;;;;;;;22.55;15.10;;;;;;;-1.48;100.00;96624.34;5002447;28;20117;-65
2022/04/03 04:54:58;;;;;;;24.48;15.43;;;;;;;-1.59;100.00;96621.78;5002730;28;20161;-65
2022/04/03 04:57:24;;;;;;;24.08;16.02;;;;;;;-1.73;100.00;96624.41;4995183;28;20042;-65
2022/04/03 04:59:49;;;;;;;23.05;14.85;;;;;;;-1.66;100.00;96624.03;5001070;28;20049;-65
2022/04/03 05:02:14;;;;;;;25.17;15.43;;;;;;;-1.60;100.00;96620.22;4999127;28;20042;-65
2022/04/03 05:04:40;;;;;;;24.15;15.57;;;;;;;-1.49;100.00;96620.06;5000009;28;20034;-65
2022/04/03 05:07:07;;;;;;;23.98;14.57;;;;;;;-1.48;100.00;96622.44;4993230;28;20065;-65
2022/04/03 05:09:33;;;;;;;26.63;15.88;;;;;;;-1.45;100.00;96624.56;5000275;28;20157;-65
2022/04/03 05:11:59;;;;;;;22.15;14.60;;;;;;;-1.32;100.00;96625.72;5005729;28;20713;-65
2022/04/03 05:14:25;;;;;;;24.88;15.18;;;;;;;-1.26;100.00;96631.81;5004794;28;20108;-65
2022/04/03 05:16:50;;;;;;;22.33;14.48;;;;;;;-1.54;100.00;96634.38;5012072;28;20073;-63
2022/04/03 05:19:16;;;;;;;24.73;14.55;;;;;;;-1.51;100.00;96638.34;5013172;28;20084;-63
2022/04/03 05:21:42;;;;;;;26.90;14.45;;;;;;;-1.48;100.00;96641.25;5010139;28;20271;-64
2022/04/03 05:24:07;;;;;;;23.75;14.57;;;;;;;-1.29;100.00;96643.16;5004638;28;20050;-64
2022/04/03 05:26:32;;;;;;;25.75;15.45;;;;;;;-1.16;100.00;96642.41;5012511;28;20111;-64
2022/04/03 05:28:58;;;;;;;27.00;14.32;;;;;;;-0.93;100.00;96646.09;5012708;28;20056;-64
2022/04/03 05:31:26;;;;;;;20.35;14.10;;;;;;;-1.19;100.00;96643.00;5011270;28;20021;-64
2022/04/03 05:33:53;;;;;;;22.35;14.40;;;;;;;-1.00;100.00;96651.84;5012154;28;20088;-63
2022/04/03 05:36:19;;;;;;;19.90;12.63;;;;;;;-0.68;100.00;96654.84;5002753;28;20045;-63
2022/04/03 05:38:44;;;;;;;18.85;12.57;;;;;;;-0.36;100.00;96654.03;5001209;28;20410;-63
2022/04/03 05:41:10;;;;;;;19.23;12.25;;;;;;;-0.59;100.00;96659.25;5003824;28;20116;-65
2022/04/03 05:43:35;;;;;;;19.27;12.10;;;;;;;-0.14;100.00;96657.94;5006577;28;20041;-63
2022/04/03 05:46:00;;;;;;;22.13;12.40;;;;;;;-0.40;100.00;96661.88;5003915;28;20038;-64
2022/04/03 05:48:26;;;;;;;18.80;12.50;;;;;;;0.17;100.00;96664.31;5014847;28;20048;-64
2022/04/03 05:50:51;;;;;;;18.63;12.38;;;;;;;-0.89;100.00;96665.91;5016063;28;20117;-65
2022/04/03 05:53:17;;;;;;;18.13;12.77;;;;;;;-0.91;100.00;96670.00;5006884;28;20088;-65
2022/04/03 05:55:42;;;;;;;19.02;12.73;;;;;;;-0.81;100.00;96669.81;5012300;28;20045;-67
2022/04/03 05:58:08;;;;;;;20.92;12.70;;;;;;;-1.05;100.00;96667.25;5002849;28;20030;-65
2022/04/03 06:00:34;;;;;;;21.10;12.82;;;;;;;-1.19;100.00;96665.31;5004103;28;20490;-65
2022/04/03 06:03:01;;;;;;;21.33;13.23;;;;;;;-0.76;100.00;96667.06;5012499;28;20018;-65
2022/04/03 06:05:29;;;;;;;20.05;12.88;;;;;;;-0.57;100.00;96668.94;5004932;28;20038;-65
2022/04/03 06:07:55;;;;;;;17.73;11.68;;;;;;;0.02;100.00;96678.09;5003696;28;20465;-65
2022/04/03 06:10:23;;;;;;;16.92;11.30;;;;;;;-0.06;100.00;96671.47;5012206;28;20430;-66
2022/04/03 06:12:54;;;;;;;18.38;13.10;;;;;;;-0.93;100.00;96678.34;5002959;28;20422;-65
2022/04/03 06:15:20;;;;;;;17.42;12.65;;;;;;;-0.86;100.00;96683.38;5003572;28;20037;-65
2022/04/03 06:17:48;;;;;;;21.90;13.82;;;;;;;-0.96;100.00;96687.00;5011825;28;20034;-65
2022/04/03 06:20:14;;;;;;;22.42;12.77;;;;;;;-0.86;100.00;96683.38;5011982;28;20034;-65
2022/04/03 06:22:39;;;;;;;27.50;15.75;;;;;;;-0.84;100.00;96691.94;5012352;28;20775;-65
2022/04/03 06:25:06;;;;;;;21.08;15.18;;;;;;;-0.93;100.00;96688.31;5011981;28;20045;-65
2022/04/03 06:27:33;;;;;;;20.17;13.90;;;;;;;-0.63;100.00;96693.22;5006730;28;20034;-65
2022/04/03 06:29:58;;;;;;;22.45;14.15;;;;;;;-0.79;100.00;96687.28;5004387;28;20446;-66
2022/04/03 06:32:24;;;;;;;17.17;12.48;;;;;;;-0.91;100.00;96681.56;5012731;28;20022;-66
2022/04/03 06:34:49;;;;;;;23.40;14.40;;;;;;;-0.19;100.00;96693.81;5011864;28;20069;-64
2022/04/03 06:37:14;;;;;;;19.65;13.20;;;;;;;0.88;96.38;96695.44;5004371;28;20033;-64
2022/04/03 06:39:40;;;;;;;18.33;12.02;;;;;;;1.01;93.33;96700.00;5003701;28;20033;-65
2022/04/03 06:42:06;;;;;;;17.90;12.40;;;;;;;0.50;99.15;96701.09;5007247;28;20026;-64
2022/04/03 06:44:31;;;;;;;18.00;12.10;;;;;;;0.25;95.97;96705.09;5003337;28;20064;-65
2022/04/03 06:46:57;;;;;;;23.33;12.95;;;;;;;0.81;94.79;96712.06;5011455;28;20037;-65
2022/04/03 06:49:22;;;;;;;19.17;13.10;;;;;;;0.03;97.74;96711.97;5011388;28;20037;-65
2022/04/03 06:51:47;;;;;;;17.63;10.90;;;;;;;0.19;96.96;96712.50;5005071;28;20026;-65
2022/04/03 06:54:13;;;;;;;18.42;12.30;;;;;;;0.46;96.70;96719.75;5006995;28;20029;-65
2022/04/03 06:56:38;;;;;;;21.90;13.95;;;;;;;0.60;95.69;96717.06;5015260;28;20045;-66
2022/04/03 06:59:04;;;;;;;24.40;16.33;;;;;;;-0.08;97.79;96719.44;5014904;28;20045;-67
2022/04/03 07:01:30;;;;;;;22.83;13.63;;;;;;;-0.07;98.13;96714.88;5014765;28;20257;-67
2022/04/03 07:03:55;;;;;;;26.63;18.10;;;;;;;-0.36;99.14;96729.38;5013386;28;20399;-65
2022/04/03 07:06:20;;;;;;;21.25;14.05;;;;;;;-0.41;99.31;96722.16;5001505;28;20034;-65
2022/04/03 07:08:48;;;;;;;23.73;13.77;;;;;;;0.01;97.70;96727.63;4996953;28;20562;-65
2022/04/03 07:11:14;;;;;;;22.00;13.15;;;;;;;-0.05;99.66;96726.16;4994474;28;20081;-65
2022/04/03 07:13:40;;;;;;;16.63;11.70;;;;;;;-0.45;99.87;96723.03;5003545;28;20034;-63
2022/04/03 07:16:05;;;;;;;30.48;20.70;;;;;;;-0.61;100.00;96728.69;5004814;28;20142;-63
2022/04/03 07:18:31;;;;;;;26.05;15.90;;;;;;;-0.53;100.00;96734.50;5010039;28;20376;-63
2022/04/03 07:20:56;;;;;;;24.58;15.15;;;;;;;-0.22;100.00;96735.59;5013751;28;20045;-64
2022/04/03 07:23:24;;;;;;;22.50;12.95;;;;;;;0.22;98.86;96744.22;5014865;28;20117;-64
2022/04/03 07:25:49;;;;;;;17.27;11.50;;;;;;;0.49;93.80;96737.25;5012962;28;20044;-64
2022/04/03 07:28:15;;;;;;;20.88;13.73;;;;;;;-0.02;94.19;96737.13;5001599;28;20121;-64
2022/04/03 07:30:40;;;;;;;17.17;11.65;;;;;;;0.02;93.06;96740.03;5011420;28;20034;-64
2022/04/03 07:33:06;;;;;;;18.45;11.55;;;;;;;0.28;93.76;96744.91;5014331;28;20461;-64
2022/04/03 07:35:31;;;;;;;20.05;12.82;;;;;;;0.38;92.29;96739.34;5014223;28;20109;-64
2022/04/03 07:37:56;;;;;;;19.70;13.38;;;;;;;0.93;91.48;96755.44;5014443;28;20026;-64
2022/04/03 07:40:22;;;;;;;16.77;10.07;;;;;;;0.91;88.31;96746.88;5014192;28;20471;-64
2022/04/03 07:42:49;;;;;;;16.33;11.48;;;;;;;1.32;88.32;96755.97;5004317;28;20033;-63
2022/04/03 07:45:15;;;;;;;14.63;10.98;;;;;;;2.14;84.65;96762.03;5007849;28;20525;-65
2022/04/03 07:47:48;;;;;;;23.60;17.35;;;;;;;1.53;88.01;96754.38;5013816;28;20065;-65
2022/04/03 07:50:14;;;;;;;17.55;9.93;;;;;;;1.77;85.50;96761.38;5004093;28;20030;-64
2022/04/03 07:52:41;;;;;;;16.13;10.35;;;;;;;2.85;80.15;96766.63;5011208;28;20133;-64
2022/04/03 07:55:10;;;;;;;14.02;9.30;;;;;;;4.49;74.87;96761.41;5014216;28;20041;-64
2022/04/03 07:57:38;;;;;;;15.20;10.65;;;;;;;1.69;82.09;96767.50;4997065;28;20136;-65
2022/04/03 08:00:06;;;;;;;19.42;12.40;;;;;;;1.50;88.30;96760.38;4994890;28;20393;-64
2022/04/03 08:02:33;;;;;;;14.95;11.02;;;;;;;2.22;85.71;96771.31;4994672;28;20024;-64
2022/04/03 08:04:59;;;;;;;13.40;9.75;;;;;;;2.76;79.68;96766.59;4994316;28;20483;-65
2022/04/03 08:07:55;;;;;;;15.02;11.45;;;;;;;3.39;80.44;96766.38;4994169;28;20061;-64
2022/04/03 08:10:22;;;;;;;13.82;10.10;;;;;;;3.22;79.41;96765.25;4989996;28;20058;-64
2022/04/03 08:12:49;;;;;;;14.45;10.13;;;;;;;2.26;80.00;96775.00;4999681;28;20037;-64
2022/04/03 08:15:16;;;;;;;14.43;10.55;;;;;;;1.55;87.17;96777.56;5006853;28;20037;-64
2022/04/03 08:20:17;;;;;;;21.63;12.30;;;;;;;2.20;85.13;96776.25;4990824;28;20054;-64
2022/04/03 08:22:44;;;;;;;14.80;9.15;;;;;;;2.72;80.00;96773.75;4991655;28;20041;-64
2022/04/03 08:25:12;;;;;;;18.73;12.10;;;;;;;3.24;77.45;96775.75;4994719;28;20086;-64
2022/04/03 08:27:48;;;;;;;13.95;9.65;;;;;;;2.40;78.11;96777.63;4992969;28;20038;-64
2022/04/03 08:30:34;;;;;;;16.48;11.90;;;;;;;1.99;81.32;96768.66;4986281;28;20057;-64
2022/04/03 08:33:01;;;;;;;17.33;11.15;;;;;;;1.93;80.96;96786.09;4994550;28;20399;-64
2022/04/03 08:35:30;;;;;;;13.68;9.95;;;;;;;1.37;84.56;96787.41;4980229;28;20050;-63
2022/04/03 08:37:56;;;;;;;16.25;9.93;;;;;;;1.36;85.61;96789.31;4993742;28;20022;-63
2022/04/03 08:40:23;;;;;;;17.13;11.38;;;;;;;1.44;86.08;96790.50;5009311;28;20437;-64
2022/04/03 08:42:55;;;;;;;12.77;9.15;;;;;;;1.45;83.57;96789.41;4993087;28;20026;-64
2022/04/03 08:45:22;;;;;;;13.45;9.57;;;;;;;2.33;78.93;96786.16;4980795;28;20049;-64
2022/04/03 08:47:53;;;;;;;18.20;11.90;;;;;;;2.45;79.61;96794.50;4974822;28;20026;-64
2022/04/03 08:50:23;;;;;;;12.38;8.45;;;;;;;3.14;74.43;96793.09;4974470;28;20049;-65
2022/04/03 08:52:49;;;;;;;;;;;;;;;3.05;77.99;96790.38;4974613;28;20069;-64
2022/04/03 08:55:16;;;;;;;11.20;8.35;;;;;;;3.83;73.67;96799.66;4984560;28;20352;-64
2022/04/03 08:57:42;;;;;;;10.95;8.20;;;;;;;4.02;68.76;96793.91;4992003;28;20045;-65
2022/04/03 09:00:09;;;;;;;10.60;7.78;;;;;;;4.59;67.88;96790.88;4990899;28;20027;-65
2022/04/03 09:02:36;;;;;;;15.20;8.88;;;;;;;3.49;74.30;96798.53;4978813;28;20058;-65
2022/04/03 09:05:03;;;;;;;13.63;9.52;;;;;;;3.18;72.64;96796.75;4993614;28;20050;-65
2022/04/03 09:07:29;;;;;;;11.07;7.80;;;;;;;3.35;72.76;96796.00;4987421;28;20065;-64
2022/04/03 09:10:06;;;;;;;15.75;8.93;;;;;;;3.16;72.52;96800.91;4990480;28;20034;-66
2022/04/03 09:12:31;;;;;;;14.43;8.65;;;;;;;2.46;75.23;96795.28;5002055;28;20057;-64
2022/04/03 09:14:57;;;;;;;14.32;8.38;;;;;;;2.33;74.67;96798.88;4986829;28;20479;-66
2022/04/03 09:17:42;;;;;;;14.10;8.52;;;;;;;2.38;77.17;96806.88;4994106;28;20030;-64
2022/04/03 09:20:12;;;;;;;11.10;8.05;;;;;;;4.31;71.84;96800.56;4982884;28;20134;-64
2022/04/03 09:22:39;;;;;;;9.68;7.45;;;;;;;4.67;69.71;96800.09;5007239;28;20039;-65
2022/04/03 09:25:06;;;;;;;11.20;8.50;;;;;;;2.63;77.20;96797.28;5009584;28;20058;-64
2022/04/03 09:27:55;;;;;;;11.98;8.30;;;;;;;3.18;76.14;96788.66;4986854;28;20041;-64
2022/04/03 09:30:23;;;;;;;11.20;8.40;;;;;;;2.58;75.93;96800.91;4985156;28;20046;-65
2022/04/03 09:32:50;;;;;;;10.80;8.20;;;;;;;3.52;74.88;96797.13;5002414;28;20037;-64
2022/04/03 09:35:17;;;;;;;16.15;9.18;;;;;;;3.91;73.33;96793.44;4981634;28;20042;-64
2022/04/03 09:38:12;;;;;;;11.02;7.40;;;;;;;4.68;66.38;96798.19;4986211;28;20048;-64
2022/04/03 09:40:44;;;;;;;11.77;8.48;;;;;;;2.95;75.07;96795.28;4992404;28;20133;-64
2022/04/03 09:43:27;;;;;;;12.55;9.02;;;;;;;2.03;77.84;96793.16;5000946;28;20034;-63
2022/04/03 09:46:00;;;;;;;13.98;9.27;;;;;;;1.65;78.40;96798.94;4983347;28;20037;-64
2022/04/03 09:48:31;;;;;;;19.90;12.13;;;;;;;2.13;76.66;96801.00;4983595;28;20061;-64
2022/04/03 09:51:11;;;;;;;14.05;8.95;;;;;;;2.14;75.47;96802.56;4986162;28;20034;-63
2022/04/03 09:53:46;;;;;;;13.02;7.80;;;;;;;3.03;74.35;96795.31;4995503;28;20035;-64
2022/04/03 09:56:34;;;;;;;12.30;7.68;;;;;;;3.33;68.14;96802.84;4999284;28;20054;-64
2022/04/03 09:59:05;;;;;;;11.48;7.15;;;;;;;3.23;70.23;96799.31;4999211;28;20034;-63
2022/04/03 10:01:41;;;;;;;10.80;7.78;;;;;;;2.83;72.75;96796.69;4986938;28;20045;-63
2022/04/03 10:04:13;;;;;;;15.35;9.40;;;;;;;2.48;74.55;96806.56;4981327;28;20034;-63
2022/04/03 10:06:39;;;;;;;11.02;8.30;;;;;;;2.42;73.37;96797.03;4990844;28;20027;-64
2022/04/03 10:09:07;;;;;;;11.48;8.55;;;;;;;1.63;77.04;96799.22;4979400;28;20074;-64
2022/04/03 10:11:33;;;;;;;13.15;8.13;;;;;;;1.47;76.36;96793.38;4978251;28;20046;-64
2022/04/03 10:13:58;;;;;;;14.48;8.32;;;;;;;1.76;78.05;96802.97;4987882;28;20027;-64
2022/04/03 10:16:24;;;;;;;14.75;8.23;;;;;;;1.59;79.17;96795.56;4986383;28;20030;-64
2022/04/03 10:18:51;;;;;;;13.52;9.15;;;;;;;2.53;78.38;96792.13;4991903;28;20031;-64
2022/04/03 10:21:23;;;;;;;12.75;8.75;;;;;;;2.33;76.59;96796.19;4956144;28;20498;-64
2022/04/03 10:23:52;;;;;;;13.23;9.32;;;;;;;1.74;78.01;96797.09;4973813;28;20479;-64
2022/04/03 10:26:19;;;;;;;14.02;10.13;;;;;;;1.34;82.42;96791.53;4969684;28;20034;-63
2022/04/03 10:28:53;;;;;;;14.38;9.52;;;;;;;1.52;81.49;96793.25;4986157;28;20026;-63
2022/04/03 10:31:19;;;;;;;14.00;8.43;;;;;;;1.86;79.25;96788.44;4988827;28;20042;-62
2022/04/03 10:33:50;;;;;;;14.50;9.35;;;;;;;1.65;79.50;96791.63;4985868;28;20395;-63
2022/04/03 10:36:27;;;;;;;11.90;8.98;;;;;;;1.68;76.39;96793.72;4977585;28;20065;-63
2022/04/03 10:39:10;;;;;;;15.60;9.52;;;;;;;1.71;80.04;96795.00;4977754;28;20364;-63
2022/04/03 10:41:43;;;;;;;11.40;8.20;;;;;;;2.01;76.64;96790.75;4983462;28;20061;-63
2022/04/03 10:44:21;;;;;;;11.27;7.47;;;;;;;1.77;75.16;96782.19;4965619;28;20047;-64
2022/04/03 10:47:01;;;;;;;14.63;9.27;;;;;;;2.20;76.68;96795.94;4984157;28;20034;-64
2022/04/03 10:49:32;;;;;;;11.93;7.97;;;;;;;1.96;77.35;96798.97;4991686;28;20044;-64
2022/04/03 10:52:08;;;;;;;13.27;8.07;;;;;;;2.28;75.58;96794.41;4995903;28;20491;-65
2022/04/03 10:54:42;;;;;;;14.23;8.30;;;;;;;2.10;77.85;96790.81;4996602;28;20037;-63
2022/04/03 10:57:41;;;;;;;17.33;8.18;;;;;;;2.38;76.88;96798.75;4987483;28;20034;-63
2022/04/03 11:00:12;;;;;;;11.63;7.68;;;;;;;1.82;75.45;96801.75;4970660;28;20039;-64
2022/04/03 11:02:43;;;;;;;11.23;8.00;;;;;;;1.51;74.13;96801.66;4985074;28;20121;-64
2022/04/03 11:05:26;;;;;;;11.82;7.70;;;;;;;2.23;75.00;96810.75;4976012;28;20058;-63
2022/04/03 11:08:02;;;;;;;11.13;7.60;;;;;;;1.78;76.42;96805.38;4976591;28;20600;-66
2022/04/03 11:10:54;;;;;;;12.07;8.27;;;;;;;2.39;72.12;96808.44;4977329;28;20043;-66
2022/04/03 11:13:28;;;;;;;14.07;7.65;;;;;;;1.50;75.17;96806.28;4981164;28;20066;-64
2022/04/03 11:15:55;;;;;;;11.25;7.68;;;;;;;1.79;73.41;96801.56;4977993;28;20518;-64
2022/04/03 11:18:44;;;;;;;10.93;7.10;;;;;;;2.46;74.56;96803.38;4983566;28;20038;-64
2022/04/03 11:21:13;;;;;;;12.00;7.53;;;;;;;2.36;75.16;96804.47;4998223;28;20034;-63